Time;durP1;ratioP1;P1;durP2;ratioP2;P2;SDS_P1;SDS_P2;PMS_P1;PMS_P2;Temp;Humidity;BMP_temperature;BMP_pressure;BME280_temperature;BME280_humidity;BME280_pressure;Samples;Min_cycle;Max_cycle;Signal;HPM_P1;HPM_P2
2023/02/16 00:01:22;;;;;;;1.60;1.37;;;4.80;98.20;;;;;;5064169;28;20464;-72
2023/02/16 00:03:51;;;;;;;1.60;1.40;;;4.80;98.20;;;;;;5078052;28;20457;-74
2023/02/16 00:06:22;;;;;;;1.60;1.50;;;4.70;98.20;;;;;;5067205;28;20488;-74
2023/02/16 00:08:56;;;;;;;1.60;1.30;;;4.70;98.20;;;;;;5076099;28;20493;-73
2023/02/16 00:14:15;;;;;;;1.57;1.33;;;4.60;98.20;;;;;;5080438;28;21160;-73
2023/02/16 00:16:45;;;;;;;1.60;1.37;;;4.60;98.20;;;;;;5057211;28;20481;-73
2023/02/16 00:19:21;;;;;;;1.70;1.60;;;4.50;98.20;;;;;;5075270;28;20476;-74
2023/02/16 00:21:49;;;;;;;1.60;1.40;;;4.50;98.20;;;;;;5058491;28;20958;-75
2023/02/16 00:24:17;;;;;;;1.60;1.40;;;4.50;98.20;;;;;;5076091;28;20462;-75
2023/02/16 00:26:45;;;;;;;1.60;1.33;;;4.50;98.20;;;;;;5055075;28;21014;-75
2023/02/16 00:29:17;;;;;;;2.57;2.37;;;4.40;98.20;;;;;;5073280;28;20461;-74
2023/02/16 00:31:43;;;;;;;1.60;1.40;;;4.40;98.20;;;;;;5062994;28;20492;-75
2023/02/16 00:34:27;;;;;;;1.60;1.30;;;4.40;98.20;;;;;;5079122;28;20461;-74
2023/02/16 00:36:55;;;;;;;1.60;1.50;;;4.40;98.20;;;;;;5058360;28;20917;-74
2023/02/16 00:39:25;;;;;;;1.60;1.47;;;4.30;98.20;;;;;;5066834;28;20536;-75
2023/02/16 00:41:53;;;;;;;1.60;1.40;;;4.30;98.20;;;;;;5053085;28;20489;-74
2023/02/16 00:44:27;;;;;;;1.60;1.50;;;4.30;98.20;;;;;;5057639;28;20466;-74
2023/02/16 00:46:54;;;;;;;1.60;1.30;;;4.20;98.20;;;;;;5059258;28;20473;-75
2023/02/16 00:49:22;;;;;;;1.60;1.40;;;4.20;98.20;;;;;;5066236;28;20496;-76
2023/02/16 00:51:50;;;;;;;1.60;1.40;;;4.20;98.20;;;;;;5056432;28;20481;-74
2023/02/16 00:54:17;;;;;;;1.60;1.30;;;4.20;98.20;;;;;;5070217;28;20464;-74
2023/02/16 00:56:46;;;;;;;1.60;1.50;;;4.20;98.20;;;;;;5058419;28;20494;-73
2023/02/16 00:59:17;;;;;;;1.60;1.50;;;4.20;98.20;;;;;;5068760;28;20452;-74
2023/02/16 01:01:44;;;;;;;1.60;1.40;;;4.20;98.20;;;;;;5058437;28;20645;-74
2023/02/16 01:04:18;;;;;;;1.60;1.40;;;4.10;98.20;;;;;;5067148;28;20918;-74
2023/02/16 01:12:18;;;;;;;1.60;1.50;;;4.00;98.20;;;;;;5052738;28;20573;-75
2023/02/16 01:14:47;;;;;;;1.60;1.30;;;4.00;98.20;;;;;;5063921;28;21168;-74
2023/02/16 01:17:14;;;;;;;1.60;1.50;;;4.00;98.20;;;;;;5067380;28;21063;-75
2023/02/16 01:19:41;;;;;;;1.60;1.40;;;4.00;98.20;;;;;;5069909;28;20581;-74
2023/02/16 01:22:08;;;;;;;1.60;1.40;;;4.00;98.20;;;;;;5053176;28;20492;-75
2023/02/16 01:24:35;;;;;;;1.60;1.40;;;4.00;98.20;;;;;;5075388;28;20468;-74
2023/02/16 01:27:02;;;;;;;1.60;1.50;;;3.90;98.20;;;;;;5063750;28;21017;-74
2023/02/16 01:29:31;;;;;;;1.60;1.33;;;3.90;98.20;;;;;;5065947;28;20531;-75
2023/02/16 01:31:58;;;;;;;1.60;1.40;;;3.80;98.20;;;;;;5052174;28;21020;-73
2023/02/16 01:34:25;;;;;;;1.60;1.40;;;3.80;98.20;;;;;;5067008;28;20457;-73
2023/02/16 01:36:52;;;;;;;1.60;1.40;;;3.70;98.20;;;;;;5055475;28;20519;-75
2023/02/16 01:39:20;;;;;;;1.63;1.53;;;3.70;98.20;;;;;;5065141;28;20461;-73
2023/02/16 01:42:09;;;;;;;1.60;1.50;;;3.60;98.20;;;;;;5056892;28;20968;-73
2023/02/16 01:44:41;;;;;;;1.70;1.60;;;3.60;98.20;;;;;;5063784;28;21116;-73
2023/02/16 01:47:18;;;;;;;1.60;1.40;;;3.60;98.20;;;;;;5061834;28;20476;-75
2023/02/16 01:49:45;;;;;;;1.60;1.50;;;3.50;98.20;;;;;;5072766;28;21018;-75
2023/02/16 01:52:19;;;;;;;1.60;1.40;;;3.50;98.20;;;;;;5062331;28;20499;-75
2023/02/16 01:54:52;;;;;;;1.60;1.40;;;3.40;98.20;;;;;;5067499;28;21151;-74
2023/02/16 01:57:28;;;;;;;1.60;1.40;;;3.40;98.20;;;;;;5061953;28;20480;-75
2023/02/16 02:00:08;;;;;;;1.60;1.40;;;3.40;98.20;;;;;;5070001;28;20464;-75
2023/02/16 02:02:38;;;;;;;1.60;1.40;;;3.30;98.20;;;;;;5064212;28;20853;-75
2023/02/16 02:08:17;;;;;;;1.60;1.40;;;3.30;98.20;;;;;;5055394;28;20480;-74
2023/02/16 02:10:53;;;;;;;1.60;1.40;;;3.30;98.20;;;;;;5061238;28;20485;-74
2023/02/16 02:13:24;;;;;;;1.60;1.50;;;3.30;98.20;;;;;;5042585;28;20476;-73
2023/02/16 02:15:54;;;;;;;1.60;1.40;;;3.40;98.20;;;;;;5061310;28;20515;-74
2023/02/16 02:18:21;;;;;;;1.60;1.40;;;3.40;98.20;;;;;;5066799;28;20471;-74
2023/02/16 02:24:21;;;;;;;1.60;1.40;;;3.60;98.20;;;;;;5072335;28;20460;-74
2023/02/16 02:27:03;;;;;;;1.60;1.40;;;3.60;98.20;;;;;;5057882;28;20470;-75
2023/02/16 02:30:15;;;;;;;1.60;1.40;;;3.70;98.20;;;;;;5056879;28;20541;-75
2023/02/16 02:32:55;;;;;;;1.70;1.60;;;3.70;98.20;;;;;;5046669;28;20563;-74
2023/02/16 02:35:32;;;;;;;1.67;1.57;;;3.70;98.20;;;;;;5066209;28;20523;-74
2023/02/16 02:38:06;;;;;;;1.60;1.47;;;3.80;98.20;;;;;;5060667;28;20510;-75
2023/02/16 02:40:45;;;;;;;1.60;1.40;;;3.80;98.20;;;;;;5068764;28;20805;-75
2023/02/16 02:43:17;;;;;;;1.60;1.40;;;3.80;98.20;;;;;;5061847;28;20494;-75
2023/02/16 02:45:47;;;;;;;1.63;1.53;;;3.80;98.20;;;;;;5071550;28;20473;-75
2023/02/16 02:48:14;;;;;;;1.60;1.40;;;3.80;98.20;;;;;;5040892;28;20524;-74
2023/02/16 02:53:28;;;;;;;1.67;1.57;;;3.70;98.20;;;;;;5038079;28;20523;-75
2023/02/16 03:01:28;;;;;;;1.60;1.50;;;3.70;98.20;;;;;;5059694;28;20479;-75
2023/02/16 03:03:57;;;;;;;1.60;1.50;;;3.70;98.20;;;;;;5063254;28;20457;-75
2023/02/16 03:06:27;;;;;;;1.60;1.40;;;3.70;98.20;;;;;;5063153;28;20589;-75
2023/02/16 03:08:57;;;;;;;1.60;1.40;;;3.70;98.20;;;;;;5055152;28;20537;-74
2023/02/16 03:14:16;;;;;;;1.60;1.40;;;3.70;98.20;;;;;;5058344;28;20453;-75
2023/02/16 03:16:46;;;;;;;1.60;1.40;;;3.60;98.20;;;;;;5065124;28;20484;-73
2023/02/16 03:30:20;;;;;;;1.60;1.40;;;3.60;98.20;;;;;;5064475;28;21049;-76
2023/02/16 03:32:48;;;;;;;2.50;2.30;;;3.60;98.20;;;;;;5054206;28;20495;-74
2023/02/16 03:35:15;;;;;;;1.60;1.30;;;3.60;98.20;;;;;;5064011;28;20453;-75
2023/02/16 03:37:43;;;;;;;1.60;1.40;;;3.60;98.20;;;;;;5054637;28;20478;-74
2023/02/16 03:40:29;;;;;;;1.60;1.50;;;3.50;98.20;;;;;;5059283;28;20459;-75
2023/02/16 03:42:58;;;;;;;1.60;1.43;;;3.50;98.20;;;;;;5047367;28;20965;-75
2023/02/16 03:45:27;;;;;;;1.60;1.40;;;3.50;98.20;;;;;;5075001;28;20553;-74
2023/02/16 03:47:54;;;;;;;1.70;1.60;;;3.50;98.20;;;;;;5049346;28;20557;-75
2023/02/16 03:50:22;;;;;;;1.63;1.53;;;3.50;98.20;;;;;;5062460;28;20481;-74
2023/02/16 03:52:49;;;;;;;1.60;1.40;;;3.50;98.20;;;;;;5049945;28;20581;-75
2023/02/16 03:55:16;;;;;;;1.60;1.40;;;3.50;98.20;;;;;;5061056;28;20847;-76
2023/02/16 03:57:43;;;;;;;1.60;1.40;;;3.50;98.20;;;;;;5062384;28;20485;-76
2023/02/16 04:00:11;;;;;;;1.60;1.40;;;3.50;98.20;;;;;;5063382;28;21032;-74
2023/02/16 04:02:39;;;;;;;1.60;1.40;;;3.50;98.20;;;;;;5053829;28;21050;-74
2023/02/16 04:05:07;;;;;;;1.60;1.50;;;3.60;98.20;;;;;;5061934;28;20462;-74
2023/02/16 04:07:34;;;;;;;1.60;1.50;;;3.60;98.20;;;;;;5060425;28;20978;-74
2023/02/16 04:10:00;;;;;;;1.60;1.40;;;3.60;98.20;;;;;;5065969;28;20466;-75
2023/02/16 04:12:35;;;;;;;1.60;1.40;;;3.60;98.20;;;;;;5061096;28;20592;-74
2023/02/16 04:15:03;;;;;;;1.60;1.50;;;3.60;98.20;;;;;;5057660;28;20457;-74
2023/02/16 04:17:30;;;;;;;1.60;1.43;;;3.60;98.20;;;;;;5060872;28;20960;-75
2023/02/16 04:19:58;;;;;;;2.23;2.03;;;3.60;98.20;;;;;;5068132;28;20581;-75
2023/02/16 04:22:25;;;;;;;1.80;1.70;;;3.60;98.20;;;;;;5056174;28;20485;-74
2023/02/16 04:24:52;;;;;;;1.73;1.63;;;3.50;98.20;;;;;;5064891;28;20490;-74
2023/02/16 04:27:20;;;;;;;1.63;1.53;;;3.60;98.20;;;;;;5054138;28;20479;-73
2023/02/16 04:29:47;;;;;;;1.60;1.30;;;3.60;98.20;;;;;;5062886;28;20562;-75
2023/02/16 04:32:14;;;;;;;1.60;1.40;;;3.60;98.20;;;;;;5060361;28;21042;-74
2023/02/16 04:34:41;;;;;;;1.63;1.53;;;3.60;98.20;;;;;;5067566;28;20835;-73
2023/02/16 04:37:09;;;;;;;13.70;4.27;;;3.60;98.20;;;;;;5060578;28;20477;-74
2023/02/16 04:39:36;;;;;;;1.60;1.50;;;3.60;98.20;;;;;;5065862;28;20469;-74
2023/02/16 04:42:03;;;;;;;1.60;1.43;;;3.60;98.20;;;;;;5059157;28;20583;-74
2023/02/16 04:44:30;;;;;;;1.60;1.40;;;3.60;98.20;;;;;;5066095;28;20822;-74
2023/02/16 04:46:57;;;;;;;1.60;1.50;;;3.60;98.20;;;;;;5054060;28;20484;-73
2023/02/16 04:49:24;;;;;;;1.60;1.30;;;3.60;98.20;;;;;;5065904;28;20461;-74
2023/02/16 04:51:51;;;;;;;1.60;1.47;;;3.60;98.20;;;;;;5057988;28;20567;-75
2023/02/16 04:54:19;;;;;;;1.60;1.50;;;3.60;98.20;;;;;;5067316;28;20551;-74
2023/02/16 04:56:47;;;;;;;1.60;1.40;;;3.60;98.20;;;;;;5058568;28;20477;-74
2023/02/16 04:59:14;;;;;;;1.73;1.63;;;3.60;98.20;;;;;;5073707;28;21149;-74
2023/02/16 05:01:42;;;;;;;1.60;1.50;;;3.60;98.20;;;;;;5057780;28;20953;-75
2023/02/16 05:04:09;;;;;;;1.60;1.30;;;3.60;98.20;;;;;;5065007;28;20489;-74
2023/02/16 05:06:36;;;;;;;3.20;2.90;;;3.60;98.20;;;;;;5055323;28;20865;-75
2023/02/16 05:09:04;;;;;;;1.60;1.40;;;3.60;98.20;;;;;;5063196;28;21041;-74
2023/02/16 05:17:03;;;;;;;1.60;1.47;;;3.50;98.20;;;;;;5062445;28;20643;-75
2023/02/16 05:19:31;;;;;;;1.60;1.40;;;3.50;98.20;;;;;;5068204;28;20552;-75
2023/02/16 05:21:58;;;;;;;1.60;1.40;;;3.60;98.20;;;;;;5057658;28;20481;-73
2023/02/16 05:24:25;;;;;;;1.60;1.40;;;3.60;98.20;;;;;;5062565;28;20461;-74
2023/02/16 05:26:53;;;;;;;1.60;1.40;;;3.50;98.20;;;;;;5055203;28;20972;-75
2023/02/16 05:29:20;;;;;;;1.60;1.40;;;3.50;98.20;;;;;;5067255;28;20462;-75
2023/02/16 05:31:47;;;;;;;2.43;2.23;;;3.50;98.20;;;;;;5055897;28;20519;-72
2023/02/16 05:34:15;;;;;;;1.60;1.50;;;3.50;98.20;;;;;;5066705;28;20518;-74
2023/02/16 05:36:42;;;;;;;1.87;1.77;;;3.50;98.20;;;;;;5056701;28;20481;-74
2023/02/16 05:39:09;;;;;;;1.70;1.60;;;3.50;98.20;;;;;;5067394;28;20544;-75
2023/02/16 05:41:36;;;;;;;2.07;1.90;;;3.50;98.20;;;;;;5055367;28;20489;-75
2023/02/16 05:44:06;;;;;;;1.60;1.47;;;3.50;98.20;;;;;;5072465;28;20464;-74
2023/02/16 05:46:35;;;;;;;1.60;1.40;;;3.60;98.20;;;;;;5055324;28;20499;-73
2023/02/16 05:49:02;;;;;;;1.60;1.40;;;3.50;98.20;;;;;;5073026;28;20523;-73
2023/02/16 05:51:30;;;;;;;1.60;1.40;;;3.50;98.20;;;;;;5055634;28;20485;-74
2023/02/16 05:53:57;;;;;;;1.60;1.40;;;3.50;98.20;;;;;;5073061;28;20486;-73
2023/02/16 05:56:24;;;;;;;1.60;1.50;;;3.50;98.20;;;;;;5055855;28;21495;-73
2023/02/16 05:58:52;;;;;;;1.60;1.40;;;3.50;98.20;;;;;;5059677;28;20527;-73
2023/02/16 06:01:21;;;;;;;1.60;1.40;;;3.50;98.20;;;;;;5055924;28;20476;-74
2023/02/16 06:03:48;;;;;;;1.60;1.40;;;3.50;98.20;;;;;;5056972;28;21000;-74
2023/02/16 06:06:15;;;;;;;1.60;1.50;;;3.50;98.20;;;;;;5055589;28;20496;-72
2023/02/16 06:08:42;;;;;;;1.60;1.37;;;3.50;98.20;;;;;;5073106;28;20564;-71
2023/02/16 06:11:34;;;;;;;1.60;1.40;;;3.60;98.20;;;;;;5056850;28;20950;-72
2023/02/16 06:13:58;;;;;;;1.60;1.40;;;3.60;98.20;;;;;;5072179;28;20452;-72
2023/02/16 06:16:28;;;;;;;1.70;1.60;;;3.60;98.20;;;;;;5055831;28;20520;-72
2023/02/16 06:18:56;;;;;;;1.60;1.43;;;3.70;98.20;;;;;;5066709;28;20536;-72
2023/02/16 06:21:24;;;;;;;1.60;1.50;;;3.70;98.20;;;;;;5055477;28;20508;-72
2023/02/16 06:23:51;;;;;;;1.60;1.40;;;3.70;98.20;;;;;;5063298;28;20815;-74
2023/02/16 06:26:18;;;;;;;1.60;1.43;;;3.70;98.20;;;;;;5059491;28;20496;-72
2023/02/16 06:28:45;;;;;;;2.07;1.93;;;3.80;98.20;;;;;;5069196;28;20464;-73
2023/02/16 06:31:12;;;;;;;1.60;1.40;;;3.80;98.20;;;;;;5058981;28;20471;-72
2023/02/16 06:33:42;;;;;;;1.60;1.40;;;3.80;98.20;;;;;;5070388;28;20514;-73
2023/02/16 06:36:10;;;;;;;1.60;1.40;;;3.80;98.20;;;;;;5059200;28;20480;-74
2023/02/16 06:38:37;;;;;;;1.60;1.47;;;3.90;98.20;;;;;;5059449;28;20465;-73
2023/02/16 06:41:04;;;;;;;1.60;1.50;;;3.90;98.20;;;;;;5055713;28;20462;-73
2023/02/16 06:43:32;;;;;;;1.60;1.30;;;3.90;98.20;;;;;;5060352;28;20477;-73
2023/02/16 06:45:59;;;;;;;1.60;1.50;;;4.00;98.20;;;;;;5054603;28;20520;-73
2023/02/16 06:48:27;;;;;;;1.60;1.40;;;4.00;98.20;;;;;;5069287;28;20458;-73
2023/02/16 06:51:02;;;;;;;1.63;1.53;;;4.10;98.20;;;;;;5057220;28;20491;-73
2023/02/16 06:53:30;;;;;;;1.60;1.40;;;4.10;98.20;;;;;;5066091;28;20479;-73
2023/02/16 06:56:00;;;;;;;3.17;2.93;;;4.10;98.20;;;;;;5056719;28;20962;-73
2023/02/16 06:58:27;;;;;;;1.60;1.40;;;4.10;98.20;;;;;;5064667;28;20552;-73
2023/02/16 07:00:55;;;;;;;1.60;1.40;;;4.20;98.20;;;;;;5059824;28;20453;-74
2023/02/16 07:03:23;;;;;;;1.60;1.50;;;4.20;98.20;;;;;;5075046;28;20568;-73
2023/02/16 07:05:51;;;;;;;1.60;1.37;;;4.20;98.20;;;;;;5060550;28;20560;-73
2023/02/16 07:08:20;;;;;;;1.60;1.40;;;4.30;98.20;;;;;;5065125;28;20526;-75
2023/02/16 07:10:48;;;;;;;1.97;1.87;;;4.30;98.20;;;;;;5065184;28;20523;-73
2023/02/16 07:13:16;;;;;;;1.60;1.40;;;4.30;98.20;;;;;;5029033;28;21182;-75
2023/02/16 07:15:45;;;;;;;2.30;2.13;;;4.40;98.20;;;;;;5067571;28;20461;-73
2023/02/16 07:18:12;;;;;;;2.77;2.57;;;4.40;98.20;;;;;;5051983;28;20475;-73
2023/02/16 07:20:40;;;;;;;1.60;1.43;;;4.50;98.20;;;;;;5065103;28;20493;-74
2023/02/16 07:23:08;;;;;;;3.60;3.27;;;4.50;98.20;;;;;;5054453;28;20524;-74
2023/02/16 07:25:37;;;;;;;2.27;2.07;;;4.60;98.20;;;;;;5067513;28;20496;-74
2023/02/16 07:28:04;;;;;;;1.70;1.60;;;4.60;98.20;;;;;;5050606;28;20511;-73
2023/02/16 07:30:32;;;;;;;2.50;2.30;;;4.70;98.20;;;;;;5070551;28;21148;-74
2023/02/16 07:33:04;;;;;;;1.60;1.30;;;4.70;98.20;;;;;;5060863;28;20481;-74
2023/02/16 07:35:31;;;;;;;1.60;1.40;;;4.70;98.20;;;;;;5074462;22;20574;-77
2023/02/16 07:38:02;;;;;;;1.60;1.50;;;4.70;98.20;;;;;;5049531;28;20481;-75
2023/02/16 07:40:30;;;;;;;1.60;1.40;;;4.70;98.20;;;;;;5051616;28;20466;-76
2023/02/16 07:43:03;;;;;;;1.53;1.30;;;4.70;98.20;;;;;;5046809;28;20473;-76
2023/02/16 07:45:31;;;;;;;2.00;1.80;;;4.70;98.20;;;;;;5053020;28;20487;-75
2023/02/16 07:47:58;;;;;;;1.70;1.60;;;4.60;98.20;;;;;;5035730;28;20878;-75
2023/02/16 07:50:26;;;;;;;1.60;1.40;;;4.60;98.20;;;;;;5057194;28;20459;-77
2023/02/16 07:52:53;;;;;;;1.70;1.60;;;4.70;98.20;;;;;;5048228;28;20483;-76
2023/02/16 07:55:23;;;;;;;2.03;1.83;;;4.70;98.20;;;;;;5057165;28;20477;-76
2023/02/16 07:57:54;;;;;;;1.60;1.50;;;4.70;98.20;;;;;;5036217;28;20573;-74
2023/02/16 08:00:23;;;;;;;2.43;2.23;;;4.80;98.20;;;;;;5055334;28;20966;-76
2023/02/16 08:02:50;;;;;;;1.57;1.30;;;4.80;98.20;;;;;;5040657;28;20552;-76
2023/02/16 08:05:17;;;;;;;1.60;1.40;;;4.80;98.20;;;;;;5061420;28;20495;-76
2023/02/16 08:07:45;;;;;;;1.60;1.40;;;4.80;98.20;;;;;;5050310;28;20520;-76
2023/02/16 08:10:12;;;;;;;1.60;1.30;;;4.80;98.20;;;;;;5058239;28;20503;-77
2023/02/16 08:12:40;;;;;;;2.00;1.90;;;4.90;98.20;;;;;;5045916;28;20573;-77
2023/02/16 08:15:09;;;;;;;1.60;1.37;;;4.90;98.20;;;;;;5056082;28;20525;-75
2023/02/16 08:17:40;;;;;;;1.60;1.40;;;4.90;98.20;;;;;;5045346;28;20486;-77
2023/02/16 08:20:12;;;;;;;1.60;1.40;;;5.00;98.20;;;;;;5055137;28;20998;-78
2023/02/16 08:22:40;;;;;;;1.60;1.40;;;5.10;98.20;;;;;;5047463;28;20481;-77
2023/02/16 08:25:08;;;;;;;1.80;1.70;;;5.10;98.20;;;;;;5062049;28;20493;-76
2023/02/16 08:27:35;;;;;;;1.57;1.27;;;5.10;98.20;;;;;;5047970;28;20536;-77
2023/02/16 08:30:04;;;;;;;2.20;2.00;;;5.10;98.20;;;;;;5057040;28;20999;-76
2023/02/16 08:32:32;;;;;;;1.60;1.40;;;5.20;98.20;;;;;;5046871;28;20477;-77
2023/02/16 08:35:01;;;;;;;1.60;1.30;;;5.20;98.20;;;;;;5060601;28;21057;-76
2023/02/16 08:37:29;;;;;;;1.60;1.40;;;5.20;98.20;;;;;;5049559;28;20528;-77
2023/02/16 08:39:59;;;;;;;1.60;1.30;;;5.30;98.20;;;;;;5056724;28;20461;-77
2023/02/16 08:42:29;;;;;;;1.83;1.73;;;5.30;98.20;;;;;;5047429;28;21005;-78
2023/02/16 08:44:57;;;;;;;1.60;1.30;;;5.30;98.20;;;;;;5055346;28;20477;-77
2023/02/16 08:47:24;;;;;;;1.60;1.50;;;5.40;98.20;;;;;;5050108;28;20485;-76
2023/02/16 08:49:54;;;;;;;1.60;1.30;;;5.40;98.20;;;;;;5057680;28;20458;-77
2023/02/16 08:52:23;;;;;;;1.60;1.30;;;5.50;98.20;;;;;;5047970;28;20922;-77
2023/02/16 08:54:51;;;;;;;1.60;1.30;;;5.50;98.20;;;;;;5054001;28;21028;-76
2023/02/16 08:57:19;;;;;;;1.60;1.30;;;5.60;98.20;;;;;;5034385;28;20487;-78
2023/02/16 09:00:32;;;;;;;1.57;1.30;;;5.60;98.20;;;;;;5049182;28;20822;-76
2023/02/16 09:02:35;;;;;;;1.60;1.50;;;5.70;98.20;;;;;;5046058;28;20512;-76
2023/02/16 09:05:03;;;;;;;4.23;3.93;;;5.80;98.20;;;;;;5056337;28;20481;-76
2023/02/16 09:07:33;;;;;;;1.60;1.40;;;5.90;98.20;;;;;;5049358;28;21025;-78
2023/02/16 09:10:02;;;;;;;1.60;1.27;;;6.00;98.20;;;;;;5054137;28;21015;-75
2023/02/16 09:12:29;;;;;;;1.60;1.50;;;6.10;98.20;;;;;;5045464;28;20481;-78
2023/02/16 09:14:57;;;;;;;1.60;1.40;;;6.20;98.20;;;;;;5055487;28;20477;-77
2023/02/16 09:17:25;;;;;;;2.60;2.40;;;6.40;98.20;;;;;;5050674;28;20484;-78
2023/02/16 09:19:55;;;;;;;1.77;1.63;;;6.70;98.20;;;;;;5056034;28;20457;-77
2023/02/16 09:22:23;;;;;;;1.60;1.40;;;7.00;98.20;;;;;;5051561;28;20478;-76
2023/02/16 09:24:54;;;;;;;1.53;1.20;;;7.20;98.20;;;;;;5052771;28;20497;-77
2023/02/16 09:27:21;;;;;;;1.60;1.43;;;7.30;98.20;;;;;;5045455;28;20496;-78
2023/02/16 09:29:50;;;;;;;1.80;1.57;;;7.50;98.20;;;;;;5054478;28;20457;-77
2023/02/16 09:32:18;;;;;;;1.60;1.20;;;7.60;98.20;;;;;;5033009;28;20990;-78
2023/02/16 09:34:48;;;;;;;6.10;2.90;;;7.60;98.20;;;;;;5049659;28;20486;-77
2023/02/16 09:37:17;;;;;;;1.60;1.30;;;7.60;98.20;;;;;;5050248;28;20975;-76
2023/02/16 09:39:48;;;;;;;1.60;1.30;;;7.70;98.20;;;;;;5056118;28;20967;-75
2023/02/16 09:42:29;;;;;;;1.60;1.30;;;7.90;98.20;;;;;;5050548;28;20481;-75
2023/02/16 09:45:08;;;;;;;1.70;1.60;;;7.80;98.20;;;;;;5057377;28;20477;-75
2023/02/16 09:47:42;;;;;;;1.60;1.20;;;7.70;98.20;;;;;;5051951;28;21018;-75
2023/02/16 09:50:18;;;;;;;1.60;1.30;;;7.70;98.20;;;;;;5055830;28;20549;-75
2023/02/16 09:52:53;;;;;;;1.60;1.20;;;7.70;98.20;;;;;;5049647;28;20484;-76
2023/02/16 09:55:24;;;;;;;1.60;1.20;;;7.70;98.20;;;;;;5050853;28;20998;-75
2023/02/16 09:58:06;;;;;;;1.57;1.20;;;7.70;98.20;;;;;;5052372;28;20857;-75
2023/02/16 10:00:52;;;;;;;1.70;1.60;;;7.80;98.20;;;;;;5052826;28;20458;-75
2023/02/16 10:03:39;;;;;;;1.60;1.27;;;7.90;98.20;;;;;;5035690;28;20464;-75
2023/02/16 10:06:29;;;;;;;2.13;1.93;;;7.90;98.20;;;;;;5044007;28;20787;-75
2023/02/16 10:09:03;;;;;;;1.60;1.23;;;7.90;98.20;;;;;;5059127;28;20549;-75
2023/02/16 10:11:40;;;;;;;1.60;1.30;;;7.90;98.20;;;;;;5045474;28;20485;-75
2023/02/16 10:14:23;;;;;;;1.60;1.20;;;7.90;98.20;;;;;;5054208;28;20477;-75
2023/02/16 10:16:55;;;;;;;1.57;1.10;;;7.90;98.20;;;;;;5046697;28;20516;-75
2023/02/16 10:19:30;;;;;;;1.57;1.20;;;7.90;98.20;;;;;;5063751;28;20470;-75
2023/02/16 10:22:05;;;;;;;1.60;1.30;;;8.00;98.20;;;;;;5050236;28;20549;-75
2023/02/16 10:24:43;;;;;;;3.57;3.27;;;8.00;98.20;;;;;;5059971;28;20480;-74
2023/02/16 10:27:15;;;;;;;1.60;1.30;;;8.00;98.20;;;;;;5044432;28;20869;-75
2023/02/16 10:29:48;;;;;;;2.93;2.73;;;8.00;98.20;;;;;;5054330;28;20491;-74
2023/02/16 10:32:29;;;;;;;1.60;1.30;;;8.00;98.20;;;;;;5048133;28;20793;-74
2023/02/16 10:35:10;;;;;;;1.60;1.30;;;8.10;98.20;;;;;;5058998;28;20571;-75
2023/02/16 10:37:53;;;;;;;1.60;1.20;;;8.00;98.20;;;;;;5037820;28;20487;-76
2023/02/16 10:40:30;;;;;;;2.20;2.00;;;8.00;98.20;;;;;;5057838;28;20556;-79
2023/02/16 10:43:13;;;;;;;1.60;1.20;;;8.10;98.20;;;;;;5048445;28;20871;-76
2023/02/16 10:45:51;;;;;;;1.60;1.40;;;8.10;98.20;;;;;;5058884;28;20565;-76
2023/02/16 10:48:21;;;;;;;1.60;1.20;;;8.10;98.20;;;;;;5051945;28;20465;-75
2023/02/16 10:50:59;;;;;;;1.60;1.33;;;8.00;98.20;;;;;;5055554;28;20461;-75
2023/02/16 10:53:40;;;;;;;1.60;1.20;;;8.00;98.20;;;;;;5056651;28;20572;-76
2023/02/16 10:56:39;;;;;;;3.73;3.53;;;8.00;98.20;;;;;;5045838;28;20520;-76
2023/02/16 10:59:17;;;;;;;1.53;1.20;;;8.00;98.20;;;;;;5058000;28;20465;-77
2023/02/16 11:01:51;;;;;;;1.60;1.40;;;8.00;98.20;;;;;;5048790;28;20582;-79
2023/02/16 11:04:38;;;;;;;1.53;1.20;;;8.00;98.20;;;;;;5060156;28;20593;-76
2023/02/16 11:07:10;;;;;;;1.57;1.20;;;8.10;98.20;;;;;;5029992;28;20482;-77
2023/02/16 11:09:42;;;;;;;1.57;1.23;;;8.10;98.20;;;;;;5050478;28;20498;-76
2023/02/16 11:12:36;;;;;;;1.60;1.10;;;8.10;98.20;;;;;;5047159;28;21005;-76
2023/02/16 11:15:09;;;;;;;1.53;1.20;;;8.20;98.20;;;;;;5016971;28;20572;-77
2023/02/16 11:17:55;;;;;;;1.60;1.20;;;8.30;98.20;;;;;;5050611;28;20590;-77
2023/02/16 11:20:30;;;;;;;1.60;1.20;;;8.40;98.20;;;;;;5051252;28;20903;-74
2023/02/16 11:23:23;;;;;;;1.60;1.20;;;8.50;98.20;;;;;;5052035;28;20845;-77
2023/02/16 11:26:01;;;;;;;1.60;1.20;;;8.70;98.20;;;;;;5040998;28;20949;-77
2023/02/16 11:28:35;;;;;;;1.60;1.20;;;8.80;98.20;;;;;;5060410;28;20457;-77
2023/02/16 11:31:18;;;;;;;1.87;1.67;;;9.00;98.20;;;;;;5043068;28;20461;-76
2023/02/16 11:34:02;;;;;;;1.60;1.23;;;9.10;98.20;;;;;;5059229;28;20489;-77
2023/02/16 11:36:39;;;;;;;1.80;1.30;;;9.20;98.20;;;;;;5043897;28;20478;-78
2023/02/16 11:39:18;;;;;;;1.60;1.20;;;9.30;98.20;;;;;;5060346;28;20553;-78
2023/02/16 11:41:51;;;;;;;1.60;1.30;;;9.40;98.20;;;;;;5039114;28;20485;-76
2023/02/16 11:44:26;;;;;;;2.90;2.20;;;9.40;98.20;;;;;;5050530;28;20485;-78
2023/02/16 11:46:56;;;;;;;1.60;1.10;;;9.50;98.20;;;;;;5039866;28;20477;-76
2023/02/16 11:49:32;;;;;;;2.53;2.33;;;9.50;98.20;;;;;;5057447;28;20454;-77
2023/02/16 11:52:09;;;;;;;1.60;1.27;;;9.60;98.20;;;;;;5047586;28;20570;-77
2023/02/16 11:54:37;;;;;;;2.27;2.07;;;9.60;98.20;;;;;;5057248;28;20497;-78
2023/02/16 11:57:08;;;;;;;1.60;1.23;;;9.70;98.20;;;;;;5050954;28;20667;-76
2023/02/16 11:59:39;;;;;;;1.60;1.30;;;9.70;98.20;;;;;;5058995;28;20470;-77
2023/02/16 12:02:45;;;;;;;1.60;1.10;;;9.80;98.20;;;;;;5045633;28;20492;-76
2023/02/16 12:05:25;;;;;;;1.60;1.20;;;10.00;98.20;;;;;;5055427;28;20478;-73
2023/02/16 12:08:06;;;;;;;1.57;1.10;;;10.00;98.20;;;;;;5033249;28;20485;-73
2023/02/16 12:10:43;;;;;;;1.60;1.20;;;10.10;98.20;;;;;;5057842;28;20458;-77
2023/02/16 12:13:22;;;;;;;1.57;1.33;;;10.20;98.20;;;;;;5047414;28;20478;-77
2023/02/16 12:16:02;;;;;;;1.70;1.60;;;10.30;98.20;;;;;;5049228;28;20484;-78
2023/02/16 12:18:41;;;;;;;1.57;1.10;;;10.40;98.20;;;;;;5057801;28;20485;-74
2023/02/16 12:21:20;;;;;;;1.60;1.20;;;10.50;98.20;;;;;;5041688;28;20475;-75
2023/02/16 12:23:57;;;;;;;1.60;1.10;;;10.50;98.20;;;;;;5060202;28;20450;-76
2023/02/16 12:26:40;;;;;;;1.60;1.30;;;10.60;98.20;;;;;;5046308;28;21272;-76
2023/02/16 12:29:23;;;;;;;1.53;1.10;;;10.60;98.20;;;;;;5055779;28;20550;-77
2023/02/16 12:32:03;;;;;;;1.57;1.10;;;10.70;98.20;;;;;;5049792;28;20516;-77
2023/02/16 12:34:44;;;;;;;1.57;1.13;;;10.70;98.20;;;;;;5054395;28;20501;-77
2023/02/16 12:37:22;;;;;;;1.50;1.10;;;10.70;98.20;;;;;;5049642;28;20906;-75
2023/02/16 12:39:59;;;;;;;1.53;1.10;;;10.70;98.20;;;;;;5050109;28;20469;-76
2023/02/16 12:42:47;;;;;;;1.60;1.20;;;10.70;98.20;;;;;;5047390;28;20495;-75
2023/02/16 12:45:18;;;;;;;1.60;1.40;;;10.70;98.20;;;;;;5056672;28;20489;-75
2023/02/16 12:47:51;;;;;;;1.60;1.10;;;10.70;98.20;;;;;;5048072;28;20477;-74
2023/02/16 12:50:23;;;;;;;1.53;1.10;;;10.60;98.20;;;;;;5059998;28;20545;-75
2023/02/16 12:52:55;;;;;;;1.57;1.20;;;10.70;98.20;;;;;;5047965;28;20504;-77
2023/02/16 12:55:28;;;;;;;1.60;1.20;;;10.60;98.20;;;;;;5050213;28;20486;-76
2023/02/16 12:58:10;;;;;;;1.60;1.17;;;10.60;98.20;;;;;;5033966;28;21685;-75
2023/02/16 13:00:46;;;;;;;1.60;1.20;;;10.70;98.20;;;;;;5048679;28;21143;-75
2023/02/16 13:03:28;;;;;;;1.60;1.10;;;10.70;98.20;;;;;;5021790;28;20987;-75
2023/02/16 13:06:07;;;;;;;1.50;1.10;;;10.80;98.20;;;;;;5046055;28;20564;-76
2023/02/16 13:08:44;;;;;;;1.50;1.10;;;10.80;98.20;;;;;;5061290;28;20465;-75
2023/02/16 13:11:20;;;;;;;1.70;1.33;;;10.80;98.20;;;;;;5039265;28;20641;-75
2023/02/16 13:13:50;;;;;;;1.60;1.20;;;10.90;98.20;;;;;;5053486;28;20485;-75
2023/02/16 13:16:22;;;;;;;1.50;1.10;;;10.90;98.20;;;;;;5044360;28;20853;-77
2023/02/16 13:18:53;;;;;;;1.57;1.07;;;11.00;98.20;;;;;;5060358;28;20841;-75
2023/02/16 13:21:44;;;;;;;1.60;1.20;;;11.10;98.20;;;;;;5037650;28;20474;-74
2023/02/16 13:24:23;;;;;;;7.07;6.40;;;11.20;98.20;;;;;;5049158;28;20482;-75
2023/02/16 13:27:05;;;;;;;1.50;1.10;;;11.30;98.20;;;;;;5030612;28;21062;-76
2023/02/16 13:29:52;;;;;;;1.60;1.10;;;11.40;98.20;;;;;;5045524;28;20462;-75
2023/02/16 13:32:43;;;;;;;1.60;1.10;;;11.40;98.20;;;;;;5046636;28;20876;-75
2023/02/16 13:35:32;;;;;;;1.57;1.10;;;11.60;98.20;;;;;;5050413;28;20494;-75
2023/02/16 13:38:20;;;;;;;1.60;1.10;;;11.70;98.20;;;;;;5022132;28;20649;-76
2023/02/16 13:41:25;;;;;;;1.57;1.00;;;11.80;98.20;;;;;;5052220;28;20969;-76
2023/02/16 13:43:56;;;;;;;1.60;1.10;;;11.90;98.20;;;;;;5020766;28;20466;-75
2023/02/16 13:46:28;;;;;;;1.60;1.10;;;12.10;98.20;;;;;;5038936;28;20692;-75
2023/02/16 13:48:57;;;;;;;1.60;1.10;;;12.20;98.20;;;;;;5048013;28;20693;-75
2023/02/16 13:51:28;;;;;;;1.57;1.00;;;12.20;98.20;;;;;;5039503;28;20470;-76
2023/02/16 13:53:58;;;;;;;2.87;2.33;;;12.30;98.20;;;;;;5051265;28;20910;-75
2023/02/16 13:56:38;;;;;;;3.30;1.40;;;12.30;98.20;;;;;;5043951;28;20493;-76
2023/02/16 13:59:58;;;;;;;1.60;1.10;;;12.30;98.20;;;;;;5058914;28;20889;-75
2023/02/16 14:03:00;;;;;;;1.60;1.10;;;12.30;98.20;;;;;;5045407;28;20477;-75
2023/02/16 14:05:32;;;;;;;1.53;1.00;;;12.40;98.20;;;;;;5050536;28;20485;-74